createdAt,value
2019-05-10T00:02:13.588Z,1.90
2019-05-10T00:05:00.295Z,1.07
2019-05-10T00:07:46.915Z,1.33
2019-05-10T00:10:14.686Z,0.67
2019-05-10T00:12:58.098Z,3.47
2019-05-10T00:15:28.031Z,3.53
2019-05-10T00:17:58.559Z,1.47
2019-05-10T00:20:27.126Z,0.90
2019-05-10T00:22:56.066Z,1.40
2019-05-10T00:25:24.626Z,1.30
2019-05-10T00:27:53.195Z,1.37
2019-05-10T00:30:21.786Z,3.30
2019-05-10T00:32:50.352Z,1.70
2019-05-10T00:35:18.925Z,1.23
2019-05-10T00:37:47.883Z,1.67
2019-05-10T00:40:16.455Z,1.30
2019-05-10T00:42:45.311Z,2.33
2019-05-10T00:45:13.903Z,1.33
2019-05-10T00:47:42.467Z,3.80
2019-05-10T00:50:11.032Z,2.03
2019-05-10T00:52:39.614Z,2.20
2019-05-10T00:55:18.382Z,1.83
2019-05-10T00:57:38.466Z,2.80
2019-05-10T01:00:07.184Z,2.93
2019-05-10T01:02:35.750Z,1.17
2019-05-10T01:05:04.363Z,1.87
2019-05-10T01:07:32.943Z,2.73
2019-05-10T01:10:01.508Z,2.23
2019-05-10T01:12:30.088Z,3.33
2019-05-10T01:14:58.680Z,1.50
2019-05-10T01:17:27.229Z,1.80
2019-05-10T01:19:56.605Z,2.13
2019-05-10T01:22:25.194Z,1.87
2019-05-10T01:24:53.758Z,1.27
2019-05-10T01:27:22.706Z,1.93
2019-05-10T01:29:51.295Z,1.57
2019-05-10T01:32:20.426Z,1.63
2019-05-10T01:34:49.330Z,2.47
2019-05-10T01:37:18.242Z,1.50
2019-05-10T01:39:46.804Z,1.20
2019-05-10T01:42:15.371Z,2.27
2019-05-10T01:44:43.973Z,3.03
2019-05-10T01:47:12.531Z,1.30
2019-05-10T01:49:41.086Z,1.20
2019-05-10T01:52:09.666Z,2.03
2019-05-10T01:54:38.518Z,1.97
2019-05-10T01:57:07.087Z,2.47
2019-05-10T01:59:35.667Z,1.30
2019-05-10T02:02:05.127Z,1.20
2019-05-10T02:04:33.691Z,2.90
2019-05-10T02:07:02.275Z,1.23
2019-05-10T02:09:33.216Z,1.50
2019-05-10T02:12:01.150Z,2.20
2019-05-10T02:14:29.719Z,1.27
2019-05-10T02:16:58.279Z,2.33
2019-05-10T02:19:27.149Z,2.00
2019-05-10T02:21:55.715Z,1.50
2019-05-10T02:24:24.610Z,1.73
2019-05-10T02:26:53.474Z,1.07
2019-05-10T02:29:22.042Z,2.03
2019-05-10T02:31:50.641Z,4.00
2019-05-10T02:34:19.542Z,2.70
2019-05-10T02:36:48.128Z,1.20
2019-05-10T02:39:16.711Z,1.60
2019-05-10T02:41:45.275Z,1.43
2019-05-10T02:44:13.860Z,2.73
2019-05-10T02:46:43.068Z,1.87
2019-05-10T02:49:11.654Z,2.60
2019-05-10T02:51:40.222Z,2.67
2019-05-10T02:54:08.785Z,1.57
2019-05-10T02:56:37.363Z,1.77
2019-05-10T02:59:05.932Z,2.07
2019-05-10T03:01:34.516Z,1.93
2019-05-10T03:04:03.122Z,1.73
2019-05-10T03:06:34.000Z,1.97
2019-05-10T03:09:05.840Z,1.90
2019-05-10T03:11:47.701Z,2.50
2019-05-10T03:14:18.320Z,1.83
2019-05-10T03:16:50.041Z,2.60
2019-05-10T03:19:19.394Z,2.30
2019-05-10T03:21:49.724Z,1.60
2019-05-10T03:24:18.302Z,3.70
2019-05-10T03:26:51.064Z,4.40
2019-05-10T03:29:17.432Z,2.07
2019-05-10T03:31:46.436Z,3.43
2019-05-10T03:34:15.016Z,2.67
2019-05-10T03:36:43.723Z,3.70
2019-05-10T03:39:12.315Z,2.87
2019-05-10T03:41:40.951Z,3.00
2019-05-10T03:44:09.759Z,2.90
2019-05-10T03:46:38.340Z,3.10
2019-05-10T03:49:06.901Z,3.93
2019-05-10T03:51:35.479Z,2.30
2019-05-10T03:54:04.066Z,2.60
2019-05-10T03:56:32.623Z,2.10
2019-05-10T03:59:01.195Z,4.07
2019-05-10T04:01:30.148Z,4.77
2019-05-10T04:03:58.801Z,2.63
2019-05-10T04:06:27.707Z,4.70
2019-05-10T04:08:56.259Z,4.20
2019-05-10T04:11:24.831Z,5.17
2019-05-10T04:13:53.392Z,3.73
2019-05-10T04:16:21.983Z,2.77
2019-05-10T04:18:50.844Z,3.17
2019-05-10T04:21:19.717Z,4.80
2019-05-10T04:23:48.624Z,4.53
2019-05-10T04:26:17.198Z,4.17
2019-05-10T04:28:45.758Z,3.73
2019-05-10T04:31:14.319Z,3.43
2019-05-10T04:33:42.890Z,2.90
2019-05-10T04:36:12.515Z,2.80
2019-05-10T04:38:41.659Z,2.43
2019-05-10T04:41:10.258Z,5.10
2019-05-10T04:43:38.873Z,5.57
2019-05-10T04:46:07.432Z,3.40
2019-05-10T04:48:36.008Z,2.10
2019-05-10T04:51:04.572Z,2.93
2019-05-10T04:53:33.163Z,2.37
2019-05-10T04:56:01.726Z,3.90
2019-05-10T04:58:30.278Z,8.37
2019-05-10T05:00:58.860Z,3.30
2019-05-10T05:03:27.429Z,2.77
2019-05-10T05:05:56.023Z,4.23
2019-05-10T05:08:24.582Z,6.43
2019-05-10T05:10:53.211Z,5.13
2019-05-10T05:13:21.823Z,3.10
2019-05-10T05:15:50.455Z,2.80
2019-05-10T05:18:19.107Z,4.50
2019-05-10T05:20:47.675Z,3.83
2019-05-10T05:23:16.234Z,5.10
2019-05-10T05:25:44.809Z,3.00
2019-05-10T05:28:13.371Z,3.13
2019-05-10T05:30:41.969Z,7.10
2019-05-10T05:33:10.591Z,7.83
2019-05-10T05:35:39.165Z,2.50
2019-05-10T05:38:07.824Z,6.00
2019-05-10T05:40:36.392Z,2.93
2019-05-10T05:43:08.210Z,3.07
2019-05-10T05:45:35.765Z,4.17
2019-05-10T05:48:04.378Z,4.00
2019-05-10T05:50:32.964Z,4.63
2019-05-10T05:53:01.557Z,3.43
2019-05-10T05:55:32.007Z,3.00
2019-05-10T05:58:05.048Z,4.43
2019-05-10T06:00:30.863Z,3.83
2019-05-10T06:02:59.838Z,4.57
2019-05-10T06:05:33.991Z,4.10
2019-05-10T06:07:58.740Z,2.50
2019-05-10T06:10:27.298Z,3.97
2019-05-10T06:12:56.228Z,3.90
2019-05-10T06:15:28.935Z,3.50
2019-05-10T06:17:57.069Z,3.73
2019-05-10T06:20:25.435Z,2.50
2019-05-10T06:23:05.838Z,3.40
2019-05-10T06:25:37.742Z,3.97
2019-05-10T06:27:54.588Z,6.67
2019-05-10T06:30:23.633Z,3.30
2019-05-10T06:32:53.121Z,5.87
2019-05-10T06:35:22.596Z,3.43
2019-05-10T06:37:51.235Z,4.07
2019-05-10T06:40:32.407Z,3.10
2019-05-10T06:42:50.095Z,3.27
2019-05-10T06:45:18.778Z,5.23
2019-05-10T06:47:49.234Z,4.17
2019-05-10T06:50:23.022Z,3.50
2019-05-10T06:52:51.693Z,4.57
2019-05-10T06:55:18.320Z,3.13
2019-05-10T06:57:50.527Z,3.90
2019-05-10T07:00:17.874Z,4.93
2019-05-10T07:02:46.434Z,2.30
2019-05-10T07:05:15.015Z,4.17
2019-05-10T07:07:45.389Z,3.30
2019-05-10T07:10:19.203Z,4.27
2019-05-10T07:12:45.487Z,4.10
2019-05-10T07:15:15.839Z,2.70
2019-05-10T07:17:47.104Z,5.23
2019-05-10T07:20:14.985Z,4.07
2019-05-10T07:22:43.585Z,3.90
2019-05-10T07:25:12.154Z,2.90
2019-05-10T07:27:40.750Z,3.77
2019-05-10T07:30:09.336Z,2.90
2019-05-10T07:32:38.057Z,2.50
2019-05-10T07:35:06.680Z,4.70
2019-05-10T07:37:35.282Z,3.47
2019-05-10T07:40:04.414Z,3.30
2019-05-10T07:42:32.998Z,6.27
2019-05-10T07:45:01.799Z,4.17
2019-05-10T07:47:32.521Z,6.13
2019-05-10T07:50:03.943Z,3.37
2019-05-10T07:52:36.399Z,2.80
2019-05-10T07:55:01.637Z,2.73
2019-05-10T07:57:30.566Z,3.07
2019-05-10T08:00:03.729Z,5.57
2019-05-10T08:02:29.454Z,3.57
2019-05-10T08:04:58.551Z,2.00
2019-05-10T08:07:29.265Z,2.90
2019-05-10T08:09:59.447Z,2.70
2019-05-10T08:12:28.852Z,4.37
2019-05-10T08:14:59.042Z,2.57
2019-05-10T08:17:28.715Z,3.67
2019-05-10T08:19:57.443Z,1.83
2019-05-10T08:22:26.008Z,6.17
2019-05-10T08:24:56.323Z,2.30
2019-05-10T08:27:24.877Z,4.33
2019-05-10T08:30:17.814Z,1.97
2019-05-10T08:32:25.537Z,1.93
2019-05-10T08:34:55.825Z,2.67
2019-05-10T08:37:33.075Z,3.13
2019-05-10T08:39:55.892Z,4.30
2019-05-10T08:42:38.053Z,3.03
2019-05-10T08:45:03.796Z,2.93
2019-05-10T08:47:27.848Z,2.60
2019-05-10T08:50:10.561Z,2.97
2019-05-10T08:52:30.885Z,1.40
2019-05-10T08:54:56.678Z,3.53
2019-05-10T08:57:25.259Z,2.80
2019-05-10T09:00:02.195Z,3.83
2019-05-10T09:02:29.234Z,3.17
2019-05-10T09:04:54.428Z,2.13
2019-05-10T09:07:23.341Z,2.77
2019-05-10T09:09:53.132Z,2.87
2019-05-10T09:12:23.050Z,5.10
2019-05-10T09:14:57.421Z,3.37
2019-05-10T09:17:27.135Z,2.70
2019-05-10T09:19:53.172Z,3.10
2019-05-10T09:22:24.002Z,2.50
2019-05-10T09:24:53.073Z,6.07
2019-05-10T09:27:22.401Z,3.80
2019-05-10T09:29:53.060Z,2.67
2019-05-10T09:32:28.594Z,2.37
2019-05-10T09:34:54.116Z,2.30
2019-05-10T09:37:22.816Z,3.73
2019-05-10T09:39:54.981Z,5.50
2019-05-10T09:42:26.420Z,3.00
2019-05-10T09:44:52.745Z,1.70
2019-05-10T09:47:22.247Z,2.77
2019-05-10T09:49:58.696Z,2.20
2019-05-10T09:52:21.157Z,2.17
2019-05-10T09:54:50.003Z,4.03
2019-05-10T09:57:18.903Z,2.23
2019-05-10T09:59:47.486Z,1.73
2019-05-10T10:02:18.847Z,2.30
2019-05-10T10:04:47.371Z,2.97
2019-05-10T10:07:18.717Z,2.73
2019-05-10T10:09:47.800Z,3.23
2019-05-10T10:12:17.576Z,1.87
2019-05-10T10:14:47.370Z,2.30
2019-05-10T10:17:18.423Z,1.83
2019-05-10T10:19:48.048Z,5.63
2019-05-10T10:22:17.405Z,3.57
2019-05-10T10:24:49.194Z,2.87
2019-05-10T10:27:17.524Z,2.50
2019-05-10T10:29:47.485Z,2.97
2019-05-10T10:32:16.254Z,3.43
2019-05-10T10:34:44.818Z,3.37
2019-05-10T10:37:14.671Z,3.07
2019-05-10T10:39:43.862Z,2.73
2019-05-10T10:42:13.368Z,3.00
2019-05-10T10:44:42.091Z,2.00
2019-05-10T10:47:10.727Z,3.50
2019-05-10T10:49:39.307Z,2.13
2019-05-10T10:52:11.106Z,4.13
2019-05-10T10:54:39.941Z,1.97
2019-05-10T10:57:08.695Z,2.30
2019-05-10T10:59:37.488Z,3.17
2019-05-10T11:02:30.985Z,3.20
2019-05-10T11:04:40.649Z,2.57
2019-05-10T11:07:10.748Z,2.63
2019-05-10T11:09:37.794Z,2.00
2019-05-10T11:12:06.359Z,1.50
2019-05-10T11:14:40.269Z,1.97
2019-05-10T11:17:05.230Z,4.70
2019-05-10T11:19:33.822Z,3.93
2019-05-10T11:22:09.478Z,4.00
2019-05-10T11:24:32.675Z,2.67
2019-05-10T11:27:01.258Z,1.80
2019-05-10T11:29:30.834Z,2.10
2019-05-10T11:32:15.361Z,3.40
2019-05-10T11:34:37.582Z,2.60
2019-05-10T11:37:00.590Z,2.63
2019-05-10T11:39:33.212Z,2.80
2019-05-10T11:42:06.747Z,2.43
2019-05-10T11:44:31.657Z,2.00
2019-05-10T11:47:01.484Z,5.83
2019-05-10T11:49:30.846Z,1.70
2019-05-10T11:52:01.658Z,2.90
2019-05-10T11:54:31.923Z,2.80
2019-05-10T11:57:06.681Z,2.37
2019-05-10T11:59:33.821Z,3.10
2019-05-10T12:02:02.847Z,3.00
2019-05-10T12:04:38.967Z,2.63
2019-05-10T12:07:06.176Z,2.53
2019-05-10T12:09:32.465Z,2.03
2019-05-10T12:12:03.275Z,1.90
2019-05-10T12:14:31.713Z,2.47
2019-05-10T12:17:05.611Z,1.67
2019-05-10T12:19:36.616Z,2.40
2019-05-10T12:22:04.567Z,4.20
2019-05-10T12:24:46.817Z,2.37
2019-05-10T12:27:24.851Z,2.77
2019-05-10T12:29:32.165Z,2.63
2019-05-10T12:32:00.782Z,2.67
2019-05-10T12:34:31.179Z,2.40
2019-05-10T12:37:03.869Z,1.47
2019-05-10T12:39:30.989Z,2.30
2019-05-10T12:41:59.747Z,1.70
2019-05-10T12:44:28.306Z,3.37
2019-05-10T12:46:56.887Z,4.33
2019-05-10T12:49:26.226Z,2.83
2019-05-10T12:51:55.162Z,2.77
2019-05-10T12:54:25.452Z,2.13
2019-05-10T12:56:54.267Z,2.20
2019-05-10T12:59:22.870Z,3.07
2019-05-10T13:01:51.504Z,2.03
2019-05-10T13:04:23.253Z,2.67
2019-05-10T13:06:50.380Z,3.07
2019-05-10T13:09:34.668Z,2.40
2019-05-10T13:11:49.254Z,2.97
2019-05-10T13:14:17.837Z,2.30
2019-05-10T13:16:46.395Z,2.37
2019-05-10T13:19:19.984Z,2.47
2019-05-10T13:21:45.638Z,1.93
2019-05-10T13:24:14.267Z,2.23
2019-05-10T13:26:42.831Z,2.00
2019-05-10T13:29:11.399Z,2.00
2019-05-10T13:31:42.912Z,2.47
2019-05-10T13:34:10.678Z,2.20
2019-05-10T13:36:39.336Z,3.97
2019-05-10T13:39:07.921Z,2.50
2019-05-10T13:41:37.172Z,2.23
2019-05-10T13:44:06.453Z,4.33
2019-05-10T13:46:35.088Z,3.07
2019-05-10T13:49:03.666Z,2.53
2019-05-10T13:51:32.227Z,3.50
2019-05-10T13:54:00.901Z,2.47
2019-05-10T13:56:31.423Z,5.50
2019-05-10T13:59:13.915Z,3.10
2019-05-10T14:01:30.354Z,2.20
2019-05-10T14:04:00.885Z,3.53
2019-05-10T14:06:29.211Z,2.37
2019-05-10T14:08:57.798Z,3.87
2019-05-10T14:11:26.621Z,5.83
2019-05-10T14:13:55.536Z,3.37
2019-05-10T14:16:24.097Z,3.60
2019-05-10T14:18:52.651Z,2.70
2019-05-10T14:21:21.234Z,4.43
2019-05-10T14:23:49.794Z,2.50
2019-05-10T14:26:18.495Z,1.80
2019-05-10T14:28:52.276Z,2.37
2019-05-10T14:31:17.355Z,4.53
2019-05-10T14:33:49.540Z,2.00
2019-05-10T14:36:16.222Z,1.67
2019-05-10T14:38:47.269Z,2.77
2019-05-10T14:41:15.610Z,2.57
2019-05-10T14:43:44.173Z,3.87
2019-05-10T14:46:13.956Z,2.00
2019-05-10T14:48:42.791Z,2.03
2019-05-10T14:51:13.605Z,2.00
2019-05-10T14:53:41.660Z,1.30
2019-05-10T14:56:14.158Z,1.67
2019-05-10T14:58:40.857Z,2.53
2019-05-10T15:01:09.749Z,4.80
2019-05-10T15:03:45.622Z,2.20
2019-05-10T15:06:08.611Z,4.07
2019-05-10T15:08:37.174Z,3.80
2019-05-10T15:11:05.750Z,4.30
2019-05-10T15:13:35.317Z,2.73
2019-05-10T15:16:08.379Z,4.10
2019-05-10T15:18:34.354Z,3.40
2019-05-10T15:21:03.245Z,3.97
2019-05-10T15:23:31.819Z,2.63
2019-05-10T15:26:10.685Z,4.63
2019-05-10T15:28:34.529Z,3.87
2019-05-10T15:31:01.051Z,4.07
2019-05-10T15:33:29.650Z,3.33
2019-05-10T15:35:58.254Z,2.83
2019-05-10T15:38:26.812Z,4.70
2019-05-10T15:40:55.405Z,2.97
2019-05-10T15:43:24.266Z,2.77
2019-05-10T15:45:54.880Z,4.93
2019-05-10T15:48:23.132Z,2.40
2019-05-10T15:50:51.690Z,3.97
2019-05-10T15:53:25.637Z,3.00
2019-05-10T15:55:50.879Z,3.03
2019-05-10T15:58:19.498Z,3.23
2019-05-10T16:00:48.023Z,2.80
2019-05-10T16:03:16.605Z,3.47
2019-05-10T16:05:59.606Z,2.00
2019-05-10T16:08:15.526Z,2.27
2019-05-10T16:10:44.113Z,2.13
2019-05-10T16:13:15.148Z,2.37
2019-05-10T16:15:43.606Z,2.80
2019-05-10T16:18:12.186Z,3.83
2019-05-10T16:20:41.407Z,5.60
2019-05-10T16:23:11.263Z,4.90
2019-05-10T16:25:47.632Z,9.50
2019-05-10T16:28:10.315Z,5.07
2019-05-10T16:30:38.935Z,7.03
2019-05-10T16:33:09.707Z,3.10
2019-05-10T16:35:39.141Z,3.10
2019-05-10T16:38:08.226Z,6.23
2019-05-10T16:40:36.803Z,2.60
2019-05-10T16:43:06.832Z,3.50
2019-05-10T16:45:35.670Z,3.67
2019-05-10T16:48:05.897Z,4.03
2019-05-10T16:50:34.617Z,3.90
2019-05-10T16:53:05.666Z,3.30
2019-05-10T16:55:35.443Z,3.70
2019-05-10T16:58:03.865Z,3.50
2019-05-10T17:00:32.422Z,5.30
2019-05-10T17:03:00.992Z,5.87
2019-05-10T17:05:29.559Z,5.43
2019-05-10T17:07:58.936Z,7.80
2019-05-10T17:10:32.814Z,3.20
2019-05-10T17:12:59.688Z,4.40
2019-05-10T17:15:28.291Z,5.07
2019-05-10T17:17:56.866Z,3.73
2019-05-10T17:20:25.435Z,5.13
2019-05-10T17:22:54.014Z,5.23
2019-05-10T17:25:22.811Z,5.50
2019-05-10T17:27:57.397Z,3.93
2019-05-10T17:30:27.596Z,5.80
2019-05-10T17:32:52.095Z,4.87
2019-05-10T17:35:20.798Z,5.67
2019-05-10T17:37:52.758Z,3.83
2019-05-10T17:40:19.659Z,4.27
2019-05-10T17:42:51.371Z,4.47
2019-05-10T17:45:19.000Z,3.30
2019-05-10T17:47:47.722Z,4.03
2019-05-10T17:50:16.356Z,4.83
2019-05-10T17:52:45.267Z,2.80
2019-05-10T17:55:16.771Z,3.27
2019-05-10T17:57:48.612Z,4.13
2019-05-10T18:00:16.155Z,4.20
2019-05-10T18:02:44.715Z,5.73
2019-05-10T18:05:13.286Z,4.47
2019-05-10T18:07:41.855Z,4.50
2019-05-10T18:10:10.446Z,4.80
2019-05-10T18:12:39.083Z,4.97
2019-05-10T18:15:07.723Z,4.83
2019-05-10T18:17:36.285Z,5.80
2019-05-10T18:20:04.938Z,11.90
2019-05-10T18:22:42.197Z,5.73
2019-05-10T18:25:04.008Z,7.40
2019-05-10T18:27:32.564Z,6.23
2019-05-10T18:30:01.127Z,5.07
2019-05-10T18:32:35.721Z,9.13
2019-05-10T18:35:00.303Z,5.17
2019-05-10T18:37:28.886Z,6.43
2019-05-10T18:39:57.446Z,5.03
2019-05-10T18:42:28.008Z,5.67
2019-05-10T18:44:56.313Z,6.63
2019-05-10T18:47:25.171Z,5.63
2019-05-10T18:49:53.842Z,6.03
2019-05-10T18:52:22.403Z,9.60
2019-05-10T18:54:50.971Z,8.43
2019-05-10T18:57:19.739Z,11.20
2019-05-10T18:59:48.395Z,8.40
2019-05-10T19:02:19.653Z,8.50
2019-05-10T19:04:52.077Z,8.43
2019-05-10T19:07:17.577Z,9.10
2019-05-10T19:09:46.154Z,9.53
2019-05-10T19:12:18.924Z,9.27
2019-05-10T19:14:45.033Z,8.80
2019-05-10T19:17:13.875Z,8.33
2019-05-10T19:19:42.561Z,10.37
2019-05-10T19:22:11.087Z,8.77
2019-05-10T19:24:39.665Z,10.23
2019-05-10T19:27:09.371Z,9.97
2019-05-10T19:29:38.535Z,11.77
2019-05-10T19:32:11.479Z,10.20
2019-05-10T19:34:38.591Z,15.90
2019-05-10T19:37:07.184Z,12.63
2019-05-10T19:39:36.091Z,12.13
2019-05-10T19:42:06.247Z,14.33
2019-05-10T19:44:40.245Z,14.40
2019-05-10T19:47:05.230Z,14.87
2019-05-10T19:49:33.805Z,11.63
2019-05-10T19:52:02.393Z,11.77
2019-05-10T19:54:31.262Z,14.20
2019-05-10T19:56:59.827Z,12.80
2019-05-10T19:59:28.407Z,11.93
2019-05-10T20:01:57.035Z,11.30
2019-05-10T20:04:25.655Z,11.07
2019-05-10T20:06:54.219Z,12.33
2019-05-10T20:09:22.783Z,12.43
2019-05-10T20:11:51.354Z,13.57
2019-05-10T20:14:19.926Z,12.23
2019-05-10T20:16:52.938Z,14.00
2019-05-10T20:19:18.808Z,14.13
2019-05-10T20:21:47.370Z,10.03
2019-05-10T20:24:15.954Z,13.10
2019-05-10T20:26:44.536Z,10.83
2019-05-10T20:29:13.185Z,10.70
2019-05-10T20:31:41.742Z,14.23
2019-05-10T20:34:10.324Z,13.97
2019-05-10T20:36:39.233Z,12.23
2019-05-10T20:39:08.658Z,14.60
2019-05-10T20:41:37.254Z,15.47
2019-05-10T20:44:05.822Z,19.17
2019-05-10T20:46:34.586Z,16.40
2019-05-10T20:49:03.906Z,18.97
2019-05-10T20:51:32.475Z,12.93
2019-05-10T20:54:01.083Z,14.93
2019-05-10T20:56:29.659Z,14.73
2019-05-10T20:58:58.215Z,12.37
2019-05-10T21:01:26.815Z,12.97
2019-05-10T21:03:55.389Z,12.37
2019-05-10T21:06:23.983Z,12.40
2019-05-10T21:08:52.554Z,12.37
2019-05-10T21:11:21.228Z,11.77
2019-05-10T21:13:49.837Z,12.07
2019-05-10T21:16:18.671Z,13.27
2019-05-10T21:18:47.728Z,12.97
2019-05-10T21:21:16.546Z,14.40
2019-05-10T21:23:45.387Z,12.70
2019-05-10T21:26:14.247Z,11.13
2019-05-10T21:28:43.114Z,13.80
2019-05-10T21:31:12.052Z,14.03
2019-05-10T21:33:41.367Z,12.53
2019-05-10T21:36:10.227Z,12.63
2019-05-10T21:38:41.635Z,14.70
2019-05-10T21:41:09.134Z,12.33
2019-05-10T21:43:37.727Z,13.80
2019-05-10T21:46:06.305Z,18.20
2019-05-10T21:48:34.890Z,13.73
2019-05-10T21:51:03.482Z,15.07
2019-05-10T21:53:32.349Z,15.00
2019-05-10T21:56:01.047Z,15.93
2019-05-10T21:58:30.492Z,16.27
